Time;durP1;ratioP1;P1;durP2;ratioP2;P2;SDS_P1;SDS_P2;PMS_P1;PMS_P2;Temp;Humidity;BMP_temperature;BMP_pressure;BME280_temperature;BME280_humidity;BME280_pressure;Samples;Min_cycle;Max_cycle;Signal;HPM_P1;HPM_P2
2021/03/06 00:02:03;;;;;;;15.00;5.83;;;;;;;;;;5021104;28;23522;-68
2021/03/06 00:04:28;;;;;;;10.50;5.20;;;;;;;;;;5026893;28;20291;-68
2021/03/06 00:06:53;;;;;;;16.03;5.63;;;;;;;;;;5027053;28;20308;-68
2021/03/06 00:09:18;;;;;;;19.93;5.87;;;;;;;;;;5019484;28;20189;-67
2021/03/06 00:11:44;;;;;;;12.40;5.43;;;;;;;;;;5026652;28;20467;-67
2021/03/06 00:14:09;;;;;;;11.27;6.40;;;;;;;;;;5020080;28;20181;-67
2021/03/06 00:16:34;;;;;;;14.03;5.77;;;;;;;;;;5030257;28;20197;-67
2021/03/06 00:19:00;;;;;;;11.17;5.93;;;;;;;;;;5025124;28;20227;-68
2021/03/06 00:21:25;;;;;;;15.07;5.80;;;;;;;;;;5032444;28;20189;-67
2021/03/06 00:23:50;;;;;;;16.53;6.03;;;;;;;;;;5025739;28;20188;-68
2021/03/06 00:26:16;;;;;;;12.93;6.10;;;;;;;;;;5033457;28;20199;-68
2021/03/06 00:28:41;;;;;;;14.80;6.23;;;;;;;;;;5022913;28;20191;-68
2021/03/06 00:31:06;;;;;;;13.10;6.40;;;;;;;;;;5029664;28;20193;-68
2021/03/06 00:33:32;;;;;;;17.80;5.67;;;;;;;;;;5021930;28;20239;-68
2021/03/06 00:35:57;;;;;;;20.93;6.00;;;;;;;;;;5031048;28;20245;-68
2021/03/06 00:38:22;;;;;;;13.73;6.43;;;;;;;;;;5030291;28;21632;-68
2021/03/06 00:40:48;;;;;;;14.30;5.70;;;;;;;;;;5024909;28;20213;-68
2021/03/06 00:43:13;;;;;;;18.27;6.20;;;;;;;;;;5034365;28;20309;-68
2021/03/06 00:45:38;;;;;;;16.10;6.27;;;;;;;;;;5027398;28;20591;-68
2021/03/06 00:48:04;;;;;;;15.60;6.40;;;;;;;;;;5030217;28;20772;-68
2021/03/06 00:50:35;;;;;;;16.10;6.90;;;;;;;;;;5029055;28;21474;-68
2021/03/06 00:53:01;;;;;;;13.13;6.33;;;;;;;;;;5034534;28;20652;-68
2021/03/06 00:55:26;;;;;;;18.10;5.83;;;;;;;;;;5026171;28;20238;-68
2021/03/06 00:57:52;;;;;;;18.83;6.83;;;;;;;;;;5043242;28;20620;-68
2021/03/06 01:00:18;;;;;;;16.07;5.90;;;;;;;;;;5025738;28;20740;-68
2021/03/06 01:02:43;;;;;;;17.43;6.70;;;;;;;;;;5031107;28;20190;-68
2021/03/06 01:05:09;;;;;;;16.93;6.47;;;;;;;;;;5031128;28;20205;-68
2021/03/06 01:07:34;;;;;;;17.60;6.00;;;;;;;;;;5029653;28;20189;-68
2021/03/06 01:10:00;;;;;;;12.93;6.73;;;;;;;;;;5033066;28;20177;-68
2021/03/06 01:12:25;;;;;;;16.63;6.90;;;;;;;;;;5024080;28;20208;-68
2021/03/06 01:14:51;;;;;;;16.57;6.60;;;;;;;;;;5036873;28;20676;-68
2021/03/06 01:17:16;;;;;;;16.63;5.80;;;;;;;;;;5025016;28;20476;-68
2021/03/06 01:19:41;;;;;;;18.07;6.37;;;;;;;;;;5033977;28;20684;-68
2021/03/06 01:22:07;;;;;;;17.03;7.23;;;;;;;;;;5025416;28;20205;-68
2021/03/06 01:24:33;;;;;;;15.07;6.37;;;;;;;;;;5034247;28;20703;-68
2021/03/06 01:26:58;;;;;;;16.60;6.27;;;;;;;;;;5022455;28;20200;-68
2021/03/06 01:29:24;;;;;;;12.03;6.40;;;;;;;;;;5033846;28;20189;-68
2021/03/06 01:31:49;;;;;;;16.80;6.83;;;;;;;;;;5024086;28;20973;-68
2021/03/06 01:34:14;;;;;;;15.40;6.77;;;;;;;;;;5034005;28;20243;-68
2021/03/06 01:36:40;;;;;;;14.33;6.23;;;;;;;;;;5031033;28;20263;-68
2021/03/06 01:39:05;;;;;;;14.70;6.17;;;;;;;;;;5021631;28;20911;-68
2021/03/06 01:41:30;;;;;;;13.37;5.97;;;;;;;;;;5032266;28;20229;-68
2021/03/06 01:43:56;;;;;;;17.40;6.40;;;;;;;;;;5022666;28;20543;-68
2021/03/06 01:46:21;;;;;;;16.83;6.53;;;;;;;;;;5036019;28;20649;-68
2021/03/06 01:48:46;;;;;;;14.70;6.33;;;;;;;;;;5022527;28;20197;-68
2021/03/06 01:51:12;;;;;;;23.00;6.13;;;;;;;;;;5034362;28;20177;-68
2021/03/06 01:53:38;;;;;;;14.67;6.20;;;;;;;;;;5019867;28;20200;-68
2021/03/06 01:56:03;;;;;;;14.47;6.83;;;;;;;;;;5028345;28;20189;-68
2021/03/06 01:58:29;;;;;;;15.53;6.47;;;;;;;;;;5024990;28;20185;-68
2021/03/06 02:00:54;;;;;;;15.93;6.13;;;;;;;;;;5031376;28;20216;-68
2021/03/06 02:03:19;;;;;;;16.33;7.13;;;;;;;;;;5025030;28;20189;-68
2021/03/06 02:05:45;;;;;;;14.23;6.77;;;;;;;;;;5028097;28;20324;-68
2021/03/06 02:08:10;;;;;;;19.07;6.23;;;;;;;;;;5029630;28;20203;-68
2021/03/06 02:10:41;;;;;;;17.07;6.23;;;;;;;;;;5021952;28;20178;-68
2021/03/06 02:13:41;;;;;;;17.30;6.67;;;;;;;;;;5030981;28;20301;-68
2021/03/06 02:16:20;;;;;;;16.80;7.30;;;;;;;;;;5023926;28;20200;-68
2021/03/06 02:18:51;;;;;;;15.07;6.77;;;;;;;;;;5031294;28;20181;-68
2021/03/06 02:21:22;;;;;;;13.07;6.37;;;;;;;;;;5024215;28;20228;-68
2021/03/06 02:23:57;;;;;;;15.53;6.63;;;;;;;;;;5030560;28;20197;-68
2021/03/06 02:26:27;;;;;;;18.73;7.50;;;;;;;;;;5025987;28;20232;-69
2021/03/06 02:29:22;;;;;;;21.47;7.50;;;;;;;;;;5032237;28;20193;-68
2021/03/06 02:31:50;;;;;;;17.57;6.67;;;;;;;;;;5024592;28;20282;-68
2021/03/06 02:34:17;;;;;;;19.93;7.77;;;;;;;;;;5032530;28;20189;-69
2021/03/06 02:36:48;;;;;;;22.33;7.90;;;;;;;;;;5024471;28;20275;-68
2021/03/06 02:39:17;;;;;;;20.77;7.53;;;;;;;;;;5031084;28;20605;-68
2021/03/06 02:41:43;;;;;;;17.73;7.47;;;;;;;;;;5019114;28;20226;-68
2021/03/06 02:44:12;;;;;;;21.70;8.10;;;;;;;;;;5033043;28;20197;-68
2021/03/06 02:46:38;;;;;;;20.00;7.80;;;;;;;;;;5025869;28;20217;-68
2021/03/06 02:49:04;;;;;;;23.80;7.67;;;;;;;;;;5035751;28;20185;-68
2021/03/06 02:51:42;;;;;;;24.70;8.23;;;;;;;;;;5025034;28;20228;-68
2021/03/06 02:54:10;;;;;;;17.00;7.67;;;;;;;;;;5036804;28;20189;-68
2021/03/06 02:56:36;;;;;;;20.20;7.40;;;;;;;;;;5025191;28;20279;-68
2021/03/06 02:59:19;;;;;;;24.80;7.50;;;;;;;;;;5032538;28;20206;-68
2021/03/06 03:02:06;;;;;;;17.27;6.97;;;;;;;;;;5024588;28;21632;-68
2021/03/06 03:05:05;;;;;;;16.20;6.83;;;;;;;;;;5036052;28;20210;-68
2021/03/06 03:07:40;;;;;;;15.63;6.60;;;;;;;;;;5027446;28;20284;-68
2021/03/06 03:10:10;;;;;;;16.67;5.90;;;;;;;;;;5032410;28;20194;-69
2021/03/06 03:12:40;;;;;;;16.13;7.30;;;;;;;;;;5024331;28;20743;-68
2021/03/06 03:15:17;;;;;;;13.33;6.93;;;;;;;;;;5037698;28;20664;-68
2021/03/06 03:17:48;;;;;;;20.70;7.43;;;;;;;;;;5022663;28;20594;-68
2021/03/06 03:20:27;;;;;;;21.10;7.63;;;;;;;;;;5033505;28;20292;-68
2021/03/06 03:22:59;;;;;;;21.50;7.70;;;;;;;;;;5027376;28;20203;-68
2021/03/06 03:25:27;;;;;;;21.63;7.17;;;;;;;;;;5035844;28;20208;-68
2021/03/06 03:27:54;;;;;;;25.33;8.00;;;;;;;;;;5024893;28;20204;-68
2021/03/06 03:30:20;;;;;;;17.70;7.77;;;;;;;;;;5030447;28;20196;-68
2021/03/06 03:32:48;;;;;;;14.90;6.87;;;;;;;;;;5031484;28;20231;-68
2021/03/06 03:35:16;;;;;;;16.87;7.43;;;;;;;;;;5026976;28;20198;-68
2021/03/06 03:37:46;;;;;;;22.00;8.17;;;;;;;;;;5031039;28;20190;-68
2021/03/06 03:40:13;;;;;;;21.03;7.87;;;;;;;;;;5025427;28;20243;-68
2021/03/06 03:42:40;;;;;;;19.00;7.43;;;;;;;;;;5028922;28;20574;-68
2021/03/06 03:45:11;;;;;;;23.77;8.37;;;;;;;;;;5025513;28;20720;-68
2021/03/06 03:47:39;;;;;;;22.60;8.37;;;;;;;;;;5031706;28;20185;-68
2021/03/06 03:50:06;;;;;;;19.17;7.77;;;;;;;;;;5024325;28;20232;-68
2021/03/06 03:52:34;;;;;;;20.30;8.57;;;;;;;;;;5030495;28;20731;-68
2021/03/06 03:55:01;;;;;;;20.17;8.27;;;;;;;;;;5024148;28;20246;-68
2021/03/06 03:57:26;;;;;;;18.77;9.27;;;;;;;;;;5032354;28;20767;-68
2021/03/06 03:59:53;;;;;;;20.53;7.90;;;;;;;;;;5024776;28;20218;-68
2021/03/06 04:02:23;;;;;;;21.40;8.50;;;;;;;;;;5030275;28;20235;-68
2021/03/06 04:04:48;;;;;;;21.53;7.90;;;;;;;;;;5030288;28;20256;-68
2021/03/06 04:07:13;;;;;;;21.33;8.83;;;;;;;;;;5028244;28;20301;-68
2021/03/06 04:09:39;;;;;;;24.77;9.03;;;;;;;;;;5032747;28;20247;-68
2021/03/06 04:12:04;;;;;;;28.03;9.10;;;;;;;;;;5021622;28;20223;-68
2021/03/06 04:14:30;;;;;;;20.13;8.27;;;;;;;;;;5031138;28;20220;-68
2021/03/06 04:16:55;;;;;;;22.77;9.23;;;;;;;;;;5021402;28;20213;-68
2021/03/06 04:19:20;;;;;;;19.13;7.90;;;;;;;;;;5034136;28;20220;-68
2021/03/06 04:21:46;;;;;;;26.03;8.63;;;;;;;;;;5021567;28;20201;-68
2021/03/06 04:24:11;;;;;;;23.33;8.13;;;;;;;;;;5029983;28;20201;-68
2021/03/06 04:26:36;;;;;;;19.33;8.40;;;;;;;;;;5023108;28;20299;-68
2021/03/06 04:29:02;;;;;;;23.77;8.07;;;;;;;;;;5031654;28;20174;-68
2021/03/06 04:31:27;;;;;;;22.00;7.83;;;;;;;;;;5025686;28;20223;-68
2021/03/06 04:33:52;;;;;;;17.30;7.90;;;;;;;;;;5032495;28;20197;-68
2021/03/06 04:36:18;;;;;;;17.40;8.37;;;;;;;;;;5034554;28;20200;-68
2021/03/06 04:38:43;;;;;;;19.33;7.77;;;;;;;;;;5021073;28;20672;-68
2021/03/06 04:41:08;;;;;;;21.20;8.43;;;;;;;;;;5032070;28;20288;-68
2021/03/06 04:43:34;;;;;;;21.30;8.37;;;;;;;;;;5023992;28;20302;-68
2021/03/06 04:45:59;;;;;;;21.40;8.77;;;;;;;;;;5032770;28;20204;-68
2021/03/06 04:48:24;;;;;;;19.37;7.83;;;;;;;;;;5024793;28;20189;-68
2021/03/06 04:50:50;;;;;;;20.03;8.67;;;;;;;;;;5032956;28;20509;-69
2021/03/06 04:53:15;;;;;;;19.63;8.40;;;;;;;;;;5024875;28;20784;-68
2021/03/06 04:55:40;;;;;;;16.27;8.40;;;;;;;;;;5029469;28;20530;-68
2021/03/06 04:58:06;;;;;;;16.23;7.73;;;;;;;;;;5025194;28;20209;-68
2021/03/06 05:00:32;;;;;;;15.83;8.07;;;;;;;;;;5026446;28;20209;-68
2021/03/06 05:02:57;;;;;;;17.73;8.23;;;;;;;;;;5023130;28;20182;-68
2021/03/06 05:05:23;;;;;;;20.37;8.20;;;;;;;;;;5032870;28;20707;-68
2021/03/06 05:07:48;;;;;;;20.60;8.23;;;;;;;;;;5028676;28;20177;-68
2021/03/06 05:10:14;;;;;;;20.60;8.80;;;;;;;;;;5024801;28;20676;-68
2021/03/06 05:12:39;;;;;;;20.90;8.40;;;;;;;;;;5030984;28;20251;-68
2021/03/06 05:15:06;;;;;;;19.13;8.33;;;;;;;;;;5023287;28;20214;-68
2021/03/06 05:17:32;;;;;;;20.07;7.73;;;;;;;;;;5027066;28;20184;-68
2021/03/06 05:19:58;;;;;;;16.37;8.13;;;;;;;;;;5018640;28;20611;-68
2021/03/06 05:22:23;;;;;;;17.87;7.93;;;;;;;;;;5033217;28;20969;-68
2021/03/06 05:24:49;;;;;;;16.50;7.53;;;;;;;;;;5022627;28;20213;-69
2021/03/06 05:27:15;;;;;;;16.67;7.23;;;;;;;;;;5029751;28;20182;-68
2021/03/06 05:29:41;;;;;;;17.10;7.77;;;;;;;;;;5018753;28;20233;-68
2021/03/06 05:32:07;;;;;;;16.47;7.63;;;;;;;;;;5031681;28;20225;-68
2021/03/06 05:34:33;;;;;;;14.43;6.70;;;;;;;;;;5029353;28;20201;-68
2021/03/06 05:36:59;;;;;;;17.23;7.80;;;;;;;;;;5019705;28;20208;-69
2021/03/06 05:39:24;;;;;;;19.37;7.03;;;;;;;;;;5032509;28;21798;-69
2021/03/06 05:41:50;;;;;;;18.50;7.57;;;;;;;;;;5020333;28;20232;-68
2021/03/06 05:44:15;;;;;;;17.27;7.17;;;;;;;;;;5027767;28;20221;-68
2021/03/06 05:46:44;;;;;;;12.00;7.10;;;;;;;;;;5017121;28;20197;-68
2021/03/06 05:49:09;;;;;;;19.70;7.13;;;;;;;;;;5027735;28;20251;-68
2021/03/06 05:51:36;;;;;;;16.63;7.17;;;;;;;;;;5018538;28;20189;-68
2021/03/06 05:54:06;;;;;;;19.07;7.00;;;;;;;;;;5030237;28;20198;-68
2021/03/06 05:56:35;;;;;;;15.33;7.23;;;;;;;;;;5021549;28;20835;-68
2021/03/06 05:59:03;;;;;;;18.60;7.43;;;;;;;;;;5028976;28;20244;-68
2021/03/06 06:01:30;;;;;;;21.30;7.83;;;;;;;;;;5019619;28;20215;-68
2021/03/06 06:04:07;;;;;;;17.20;7.37;;;;;;;;;;5029764;28;20275;-68
2021/03/06 06:06:37;;;;;;;22.43;8.13;;;;;;;;;;5019152;28;20200;-68
2021/03/06 06:09:04;;;;;;;19.93;7.37;;;;;;;;;;5029072;28;20733;-68
2021/03/06 06:11:31;;;;;;;16.27;7.47;;;;;;;;;;5026813;28;20271;-68
2021/03/06 06:13:57;;;;;;;17.43;7.97;;;;;;;;;;5017323;28;20194;-68
2021/03/06 06:16:23;;;;;;;16.33;6.67;;;;;;;;;;5029747;28;20197;-68
2021/03/06 06:18:49;;;;;;;17.57;7.83;;;;;;;;;;5022339;28;20205;-68
2021/03/06 06:21:37;;;;;;;13.67;7.13;;;;;;;;;;5031342;28;20223;-67
2021/03/06 06:24:04;;;;;;;13.37;7.13;;;;;;;;;;5025791;28;20808;-67
2021/03/06 06:26:30;;;;;;;16.07;7.67;;;;;;;;;;5032194;28;20228;-67
2021/03/06 06:28:56;;;;;;;13.90;6.87;;;;;;;;;;5023271;28;20193;-68
2021/03/06 06:31:21;;;;;;;13.13;6.63;;;;;;;;;;5031611;28;20198;-67
2021/03/06 06:33:46;;;;;;;16.87;6.77;;;;;;;;;;5027710;28;20185;-68
2021/03/06 06:36:39;;;;;;;15.67;6.33;;;;;;;;;;5031295;28;20606;-67
2021/03/06 06:39:06;;;;;;;21.93;9.10;;;;;;;;;;5026006;28;20203;-67
2021/03/06 06:41:54;;;;;;;59.10;23.43;;;;;;;;;;5033297;28;20209;-67
2021/03/06 06:44:21;;;;;;;37.17;17.50;;;;;;;;;;5022015;28;20230;-67
2021/03/06 06:46:47;;;;;;;23.50;11.23;;;;;;;;;;5032149;28;20201;-67
2021/03/06 06:49:12;;;;;;;24.80;9.03;;;;;;;;;;5025103;28;20189;-68
2021/03/06 06:51:56;;;;;;;20.00;8.70;;;;;;;;;;5030470;28;20199;-68
2021/03/06 06:54:21;;;;;;;14.10;7.47;;;;;;;;;;5023032;28;20239;-67
2021/03/06 06:56:46;;;;;;;17.07;7.83;;;;;;;;;;5031047;28;20651;-68
2021/03/06 06:59:12;;;;;;;15.70;7.90;;;;;;;;;;5024957;28;20220;-68
2021/03/06 07:01:37;;;;;;;16.60;7.50;;;;;;;;;;5033323;28;20287;-68
2021/03/06 07:04:08;;;;;;;28.37;13.10;;;;;;;;;;5032487;28;20220;-68
2021/03/06 07:06:34;;;;;;;17.73;8.47;;;;;;;;;;5019546;28;20197;-68
2021/03/06 07:09:06;;;;;;;15.03;6.63;;;;;;;;;;5031592;28;20205;-68
2021/03/06 07:11:32;;;;;;;11.83;6.00;;;;;;;;;;5022906;28;20251;-68
2021/03/06 07:13:58;;;;;;;14.37;6.40;;;;;;;;;;5036112;28;20189;-68
2021/03/06 07:16:24;;;;;;;13.47;7.27;;;;;;;;;;5025900;28;20525;-68
2021/03/06 07:18:59;;;;;;;16.80;7.90;;;;;;;;;;5030049;28;20247;-67
2021/03/06 07:21:25;;;;;;;16.50;7.20;;;;;;;;;;5024044;28;20189;-68
2021/03/06 07:23:50;;;;;;;14.07;6.90;;;;;;;;;;5034698;28;20252;-67
2021/03/06 07:26:15;;;;;;;19.47;9.17;;;;;;;;;;5024644;28;20257;-67
2021/03/06 07:28:41;;;;;;;22.00;9.20;;;;;;;;;;5032353;28;20287;-67
2021/03/06 07:31:07;;;;;;;18.87;8.73;;;;;;;;;;5024739;28;20252;-68
2021/03/06 07:33:32;;;;;;;19.70;7.17;;;;;;;;;;5030670;28;20575;-67
2021/03/06 07:35:58;;;;;;;15.90;6.47;;;;;;;;;;5035502;28;20185;-68
2021/03/06 07:38:24;;;;;;;18.50;6.33;;;;;;;;;;5024093;28;20190;-67
2021/03/06 07:40:57;;;;;;;13.27;5.70;;;;;;;;;;5030509;28;20201;-68
2021/03/06 07:43:28;;;;;;;12.97;5.67;;;;;;;;;;5025322;28;20252;-68
2021/03/06 07:45:54;;;;;;;16.23;5.20;;;;;;;;;;5032375;28;20191;-68
2021/03/06 07:48:23;;;;;;;11.70;6.77;;;;;;;;;;5024674;28;20197;-68
2021/03/06 07:50:52;;;;;;;15.27;6.27;;;;;;;;;;5032703;28;20239;-68
2021/03/06 07:53:18;;;;;;;10.13;5.20;;;;;;;;;;5028737;28;20189;-68
2021/03/06 07:55:45;;;;;;;17.30;6.00;;;;;;;;;;5029711;28;20708;-68
2021/03/06 07:58:11;;;;;;;14.90;5.87;;;;;;;;;;5027500;28;20193;-68
2021/03/06 08:00:44;;;;;;;14.83;5.37;;;;;;;;;;5028774;28;20205;-68
2021/03/06 08:03:22;;;;;;;18.17;5.90;;;;;;;;;;5025193;28;20227;-68
2021/03/06 08:05:48;;;;;;;19.50;5.27;;;;;;;;;;5030719;28;20219;-69
2021/03/06 08:08:32;;;;;;;11.73;5.10;;;;;;;;;;5027199;28;20185;-69
2021/03/06 08:11:10;;;;;;;13.73;6.00;;;;;;;;;;5030322;28;20245;-69
2021/03/06 08:13:39;;;;;;;13.20;5.20;;;;;;;;;;5027740;28;20205;-69
2021/03/06 08:16:20;;;;;;;17.20;5.60;;;;;;;;;;5031632;28;20300;-69
2021/03/06 08:18:46;;;;;;;10.93;4.90;;;;;;;;;;5026807;28;20200;-69
2021/03/06 08:21:32;;;;;;;10.63;4.30;;;;;;;;;;5033418;28;20672;-69
2021/03/06 08:24:19;;;;;;;14.87;4.70;;;;;;;;;;5022723;28;20278;-69
2021/03/06 08:27:02;;;;;;;14.30;4.73;;;;;;;;;;5029613;28;20178;-69
2021/03/06 08:29:28;;;;;;;9.03;4.53;;;;;;;;;;5024217;28;20212;-69
2021/03/06 08:31:56;;;;;;;12.00;4.90;;;;;;;;;;5030261;28;20213;-69
2021/03/06 08:34:30;;;;;;;8.17;4.53;;;;;;;;;;4326610;28;10000821;-69
2021/03/06 08:37:19;;;;;;;11.33;4.40;;;;;;;;;;5026457;28;20318;-69
2021/03/06 08:40:03;;;;;;;12.47;4.73;;;;;;;;;;5021987;28;21402;-69
2021/03/06 08:42:30;;;;;;;12.13;4.77;;;;;;;;;;5018818;28;20634;-69
2021/03/06 08:45:17;;;;;;;14.53;4.57;;;;;;;;;;5013223;28;20189;-69
2021/03/06 08:47:45;;;;;;;17.63;4.67;;;;;;;;;;5020351;28;20872;-69
2021/03/06 08:50:16;;;;;;;12.50;4.20;;;;;;;;;;5019583;28;20185;-69
2021/03/06 08:52:53;;;;;;;12.73;3.83;;;;;;;;;;5028603;28;20317;-69
2021/03/06 08:55:21;;;;;;;11.83;4.00;;;;;;;;;;5022876;28;20188;-69
2021/03/06 08:57:47;;;;;;;9.77;4.30;;;;;;;;;;5026304;28;20189;-69
2021/03/06 09:00:17;;;;;;;12.57;3.37;;;;;;;;;;5025709;28;20209;-70
2021/03/06 09:02:43;;;;;;;11.67;3.63;;;;;;;;;;5018674;28;20508;-70
2021/03/06 09:05:14;;;;;;;7.43;3.50;;;;;;;;;;5026790;28;20209;-69
2021/03/06 09:07:42;;;;;;;8.73;3.70;;;;;;;;;;5020079;28;20185;-69
2021/03/06 09:10:20;;;;;;;9.53;3.87;;;;;;;;;;5031500;28;20185;-69
2021/03/06 09:12:47;;;;;;;7.77;3.60;;;;;;;;;;5018298;28;20196;-69
2021/03/06 09:15:29;;;;;;;8.13;3.27;;;;;;;;;;5032495;28;20197;-69
2021/03/06 09:17:54;;;;;;;12.73;3.60;;;;;;;;;;5023770;28;20193;-69
2021/03/06 09:20:19;;;;;;;8.80;2.93;;;;;;;;;;5032432;28;20209;-70
2021/03/06 09:22:48;;;;;;;10.20;3.03;;;;;;;;;;5021051;28;20910;-70
2021/03/06 09:25:14;;;;;;;14.33;3.60;;;;;;;;;;5030512;28;20182;-70
2021/03/06 09:27:47;;;;;;;8.63;2.93;;;;;;;;;;5020824;28;20190;-70
2021/03/06 09:30:33;;;;;;;11.23;2.90;;;;;;;;;;5029083;28;21212;-70
2021/03/06 09:32:59;;;;;;;11.63;3.17;;;;;;;;;;5022744;28;20217;-69
2021/03/06 09:35:25;;;;;;;11.90;3.03;;;;;;;;;;5030085;28;20198;-69
2021/03/06 09:38:05;;;;;;;4.80;2.57;;;;;;;;;;5019275;28;20181;-69
2021/03/06 09:40:41;;;;;;;6.73;2.80;;;;;;;;;;5030085;28;20208;-69
2021/03/06 09:43:07;;;;;;;9.43;2.47;;;;;;;;;;5020280;28;20233;-68
2021/03/06 09:45:32;;;;;;;9.80;2.63;;;;;;;;;;5028135;28;20200;-68
2021/03/06 09:48:11;;;;;;;7.20;2.03;;;;;;;;;;5026058;28;20213;-68
2021/03/06 09:50:39;;;;;;;6.07;2.40;;;;;;;;;;5026573;28;20884;-68
2021/03/06 09:53:21;;;;;;;5.23;2.27;;;;;;;;;;5032930;28;20224;-68
2021/03/06 09:56:02;;;;;;;3.00;2.20;;;;;;;;;;5031324;28;20188;-68
2021/03/06 09:58:27;;;;;;;5.87;2.67;;;;;;;;;;5036686;28;20185;-68
2021/03/06 10:00:53;;;;;;;7.70;2.63;;;;;;;;;;5030902;28;20209;-68
2021/03/06 10:03:31;;;;;;;6.70;2.70;;;;;;;;;;5035070;28;20189;-68
2021/03/06 10:06:03;;;;;;;7.20;2.30;;;;;;;;;;5027491;28;20189;-68
2021/03/06 10:08:33;;;;;;;5.47;1.90;;;;;;;;;;5037696;28;20174;-68
2021/03/06 10:11:00;;;;;;;6.40;2.00;;;;;;;;;;5030023;28;20235;-69
2021/03/06 10:13:25;;;;;;;4.10;1.73;;;;;;;;;;5036326;28;21139;-68
2021/03/06 10:15:57;;;;;;;5.80;1.53;;;;;;;;;;5028957;28;20439;-68
2021/03/06 10:18:22;;;;;;;4.00;1.60;;;;;;;;;;5037900;28;20327;-69
2021/03/06 10:20:48;;;;;;;6.10;1.43;;;;;;;;;;5032856;28;20300;-68
2021/03/06 10:23:28;;;;;;;5.13;1.10;;;;;;;;;;5034720;28;20194;-68
2021/03/06 10:26:26;;;;;;;4.87;1.30;;;;;;;;;;5029129;28;20280;-68
2021/03/06 10:28:54;;;;;;;1.93;0.60;;;;;;;;;;5045178;28;20189;-68
2021/03/06 10:31:31;;;;;;;2.77;0.83;;;;;;;;;;5029616;28;20726;-68
2021/03/06 10:33:57;;;;;;;3.03;0.73;;;;;;;;;;5035099;28;20192;-68
2021/03/06 10:36:23;;;;;;;1.53;0.70;;;;;;;;;;5029966;28;20197;-68
2021/03/06 10:38:49;;;;;;;3.07;0.50;;;;;;;;;;5035839;28;20185;-69
2021/03/06 10:41:23;;;;;;;1.13;0.50;;;;;;;;;;5031937;28;20236;-69
2021/03/06 10:43:53;;;;;;;2.47;0.80;;;;;;;;;;5036530;28;20194;-68
2021/03/06 10:46:30;;;;;;;3.53;0.77;;;;;;;;;;5028899;28;20191;-70
2021/03/06 10:49:03;;;;;;;3.97;0.80;;;;;;;;;;5039402;28;20199;-69
2021/03/06 10:51:50;;;;;;;3.60;0.73;;;;;;;;;;5036922;28;20200;-68
2021/03/06 10:54:18;;;;;;;1.27;0.87;;;;;;;;;;5036443;28;20192;-68
2021/03/06 10:56:44;;;;;;;5.20;1.17;;;;;;;;;;5039580;28;20213;-69
2021/03/06 10:59:09;;;;;;;3.83;1.17;;;;;;;;;;5026198;28;20204;-68
2021/03/06 11:01:51;;;;;;;2.83;1.30;;;;;;;;;;5036892;28;20196;-68
2021/03/06 11:04:27;;;;;;;3.30;1.03;;;;;;;;;;5026708;28;20205;-70
2021/03/06 11:06:55;;;;;;;3.23;1.07;;;;;;;;;;5034631;28;20513;-68
2021/03/06 11:09:24;;;;;;;3.60;1.23;;;;;;;;;;5025931;28;20837;-71
2021/03/06 11:11:50;;;;;;;3.27;1.17;;;;;;;;;;5033458;28;20211;-69
2021/03/06 11:14:23;;;;;;;3.93;1.13;;;;;;;;;;5025180;28;20189;-69
2021/03/06 11:16:48;;;;;;;3.17;1.10;;;;;;;;;;5031708;28;20193;-69
2021/03/06 11:19:13;;;;;;;5.93;1.03;;;;;;;;;;5022320;28;20200;-69
2021/03/06 11:21:39;;;;;;;1.57;0.80;;;;;;;;;;5030572;28;20472;-69
2021/03/06 11:24:05;;;;;;;2.67;1.07;;;;;;;;;;5024948;28;20198;-69
2021/03/06 11:26:30;;;;;;;2.67;0.87;;;;;;;;;;5035696;28;20188;-69
2021/03/06 11:28:55;;;;;;;2.08;0.90;;;;;;;;;;5024555;28;20250;-69
2021/03/06 11:31:21;;;;;;;6.57;1.47;;;;;;;;;;5032911;28;20190;-69
2021/03/06 11:33:46;;;;;;;2.37;1.20;;;;;;;;;;5032048;28;20200;-69
2021/03/06 11:36:12;;;;;;;4.43;1.23;;;;;;;;;;5020125;28;20193;-69
2021/03/06 11:38:37;;;;;;;3.25;0.98;;;;;;;;;;5030381;28;20242;-68
2021/03/06 11:41:03;;;;;;;3.13;0.80;;;;;;;;;;5021342;28;20220;-69
2021/03/06 11:43:28;;;;;;;2.30;0.65;;;;;;;;;;5032764;28;20240;-69
2021/03/06 11:45:55;;;;;;;1.70;0.60;;;;;;;;;;5023090;28;20618;-69
2021/03/06 11:48:20;;;;;;;1.33;0.45;;;;;;;;;;5045128;28;20749;-69
2021/03/06 11:50:48;;;;;;;3.45;0.60;;;;;;;;;;5020723;28;20271;-69
2021/03/06 11:53:14;;;;;;;2.63;0.50;;;;;;;;;;5034517;28;20239;-68
2021/03/06 11:55:39;;;;;;;1.63;0.57;;;;;;;;;;5022506;28;20222;-69
2021/03/06 11:58:05;;;;;;;3.05;0.73;;;;;;;;;;5035997;28;20190;-71
2021/03/06 12:00:32;;;;;;;2.05;0.60;;;;;;;;;;5021209;28;20202;-69
2021/03/06 12:02:58;;;;;;;3.15;0.60;;;;;;;;;;5029892;28;20344;-69
2021/03/06 12:05:23;;;;;;;2.30;0.80;;;;;;;;;;5032624;28;20280;-69
2021/03/06 12:07:51;;;;;;;3.90;0.80;;;;;;;;;;5021138;28;20193;-69
2021/03/06 12:10:21;;;;;;;4.07;1.00;;;;;;;;;;5027440;28;20186;-69
2021/03/06 12:12:47;;;;;;;2.60;0.60;;;;;;;;;;5021731;28;20211;-69
2021/03/06 12:15:14;;;;;;;3.95;1.23;;;;;;;;;;5028473;28;20335;-68
2021/03/06 12:17:41;;;;;;;2.60;0.60;;;;;;;;;;5021098;28;20966;-69
2021/03/06 12:20:09;;;;;;;1.90;0.70;;;;;;;;;;5033714;28;20240;-68
2021/03/06 12:22:35;;;;;;;1.38;0.40;;;;;;;;;;5020930;28;20201;-69
2021/03/06 12:25:00;;;;;;;2.20;0.50;;;;;;;;;;5030510;28;20273;-69
2021/03/06 12:27:26;;;;;;;0.98;0.30;;;;;;;;;;5022727;28;20209;-69
2021/03/06 12:29:51;;;;;;;3.40;0.60;;;;;;;;;;5030233;28;20177;-69
2021/03/06 12:32:17;;;;;;;1.90;0.50;;;;;;;;;;5024346;28;20235;-69
2021/03/06 12:34:42;;;;;;;1.23;0.40;;;;;;;;;;5029985;28;20197;-70
2021/03/06 12:37:07;;;;;;;1.45;0.40;;;;;;;;;;5031276;28;20193;-68
2021/03/06 12:39:33;;;;;;;2.55;0.47;;;;;;;;;;5022305;28;20255;-68
2021/03/06 12:41:59;;;;;;;1.85;0.50;;;;;;;;;;5028381;28;20225;-68
2021/03/06 12:44:24;;;;;;;0.80;0.35;;;;;;;;;;5022470;28;20189;-69
2021/03/06 12:46:50;;;;;;;1.52;0.30;;;;;;;;;;5030473;28;20182;-68
2021/03/06 12:49:18;;;;;;;1.75;0.30;;;;;;;;;;5021623;28;20730;-70
2021/03/06 12:51:44;;;;;;;1.33;0.50;;;;;;;;;;5029743;28;20185;-69
2021/03/06 12:54:09;;;;;;;4.40;0.88;;;;;;;;;;5023126;28;20257;-69
2021/03/06 12:56:34;;;;;;;2.35;0.68;;;;;;;;;;5030914;28;20893;-69
2021/03/06 12:59:00;;;;;;;1.30;0.40;;;;;;;;;;5025566;28;20578;-69
2021/03/06 13:01:25;;;;;;;3.00;0.70;;;;;;;;;;5030637;28;20225;-68
2021/03/06 13:03:51;;;;;;;1.30;0.73;;;;;;;;;;5023600;28;20205;-69
2021/03/06 13:06:16;;;;;;;0.98;0.50;;;;;;;;;;5026035;28;20664;-70
2021/03/06 13:08:41;;;;;;;3.13;0.60;;;;;;;;;;5031530;28;20238;-69
2021/03/06 13:11:07;;;;;;;4.30;0.70;;;;;;;;;;5019001;28;20235;-69
2021/03/06 13:13:33;;;;;;;3.92;0.90;;;;;;;;;;5030917;28;20183;-68
2021/03/06 13:15:59;;;;;;;2.97;1.42;;;;;;;;;;5023803;28;20222;-68
2021/03/06 13:18:24;;;;;;;4.20;1.05;;;;;;;;;;5031058;28;20551;-69
2021/03/06 13:20:50;;;;;;;6.40;1.00;;;;;;;;;;5022073;28;20214;-69
2021/03/06 13:23:15;;;;;;;2.17;0.80;;;;;;;;;;5034065;28;20182;-68
2021/03/06 13:25:41;;;;;;;2.45;0.93;;;;;;;;;;5023954;28;20221;-68
2021/03/06 13:28:07;;;;;;;2.10;1.60;;;;;;;;;;5030803;28;20217;-68
2021/03/06 13:30:33;;;;;;;2.28;0.80;;;;;;;;;;5023279;28;20190;-68
2021/03/06 13:32:59;;;;;;;5.43;0.90;;;;;;;;;;5033880;28;20208;-68
2021/03/06 13:35:24;;;;;;;4.07;1.20;;;;;;;;;;5032236;28;20191;-68
2021/03/06 13:37:49;;;;;;;2.72;0.73;;;;;;;;;;5026577;28;20223;-69
2021/03/06 13:40:16;;;;;;;2.20;0.80;;;;;;;;;;5034065;28;20217;-70
2021/03/06 13:42:42;;;;;;;2.20;0.90;;;;;;;;;;5024075;28;20237;-68
2021/03/06 13:45:09;;;;;;;1.15;0.60;;;;;;;;;;5032370;28;20215;-68
2021/03/06 13:47:34;;;;;;;11.75;1.30;;;;;;;;;;5017997;28;20657;-70
2021/03/06 13:49:59;;;;;;;1.73;0.77;;;;;;;;;;5032101;28;20197;-69
2021/03/06 13:52:25;;;;;;;4.15;0.70;;;;;;;;;;5022462;28;20198;-70
2021/03/06 13:54:50;;;;;;;1.65;0.80;;;;;;;;;;5034013;28;20312;-70
2021/03/06 13:57:16;;;;;;;1.38;0.63;;;;;;;;;;5023086;28;20708;-70
2021/03/06 13:59:41;;;;;;;1.80;0.70;;;;;;;;;;5037540;28;20339;-69
2021/03/06 14:02:07;;;;;;;1.50;0.57;;;;;;;;;;5022966;28;20582;-70
2021/03/06 14:04:32;;;;;;;3.00;1.23;;;;;;;;;;5033119;28;20197;-70
2021/03/06 14:06:58;;;;;;;4.13;0.70;;;;;;;;;;5030823;28;20201;-69
2021/03/06 14:09:23;;;;;;;2.33;0.75;;;;;;;;;;5024314;28;20667;-69
2021/03/06 14:11:48;;;;;;;1.35;0.65;;;;;;;;;;5028181;28;20193;-70
2021/03/06 14:14:14;;;;;;;1.63;0.70;;;;;;;;;;5022931;28;20197;-69
2021/03/06 14:16:39;;;;;;;1.10;0.70;;;;;;;;;;5027662;28;20219;-70
2021/03/06 14:19:04;;;;;;;2.90;0.98;;;;;;;;;;5019942;28;20189;-69
2021/03/06 14:21:30;;;;;;;2.33;1.00;;;;;;;;;;5030459;28;20262;-69
2021/03/06 14:23:55;;;;;;;4.03;1.50;;;;;;;;;;5025440;28;20193;-68
2021/03/06 14:26:21;;;;;;;7.78;2.63;;;;;;;;;;5031576;28;20288;-73
2021/03/06 14:28:47;;;;;;;4.00;1.37;;;;;;;;;;5019585;28;20205;-69
2021/03/06 14:31:12;;;;;;;5.80;1.70;;;;;;;;;;5029692;28;20189;-69
2021/03/06 14:33:38;;;;;;;3.90;1.27;;;;;;;;;;5025071;28;20194;-70
2021/03/06 14:36:03;;;;;;;3.10;1.30;;;;;;;;;;5028924;28;20197;-70
2021/03/06 14:38:29;;;;;;;4.13;1.57;;;;;;;;;;5030648;28;20535;-70
2021/03/06 14:40:54;;;;;;;4.10;1.48;;;;;;;;;;5023567;28;20219;-69